createdAt,value
2017-08-15T00:00:54.905Z,0
2017-08-15T00:02:10.170Z,0
2017-08-15T00:02:55.256Z,0
2017-08-15T00:04:09.870Z,0
2017-08-15T00:04:55.296Z,0
2017-08-15T00:05:55.341Z,0
2017-08-15T00:06:55.656Z,0
2017-08-15T00:08:10.298Z,0
2017-08-15T00:09:10.312Z,0
2017-08-15T00:09:55.737Z,0
2017-08-15T00:10:55.433Z,0
2017-08-15T00:12:10.393Z,0
2017-08-15T00:13:10.426Z,0
2017-08-15T00:13:55.825Z,0
2017-08-15T00:15:10.463Z,0
2017-08-15T00:15:55.880Z,0
2017-08-15T00:16:55.904Z,0
2017-08-15T00:17:55.620Z,0
2017-08-15T00:18:55.956Z,0
2017-08-15T00:19:55.993Z,0
2017-08-15T00:20:56.012Z,0
2017-08-15T00:21:55.729Z,0
2017-08-15T00:22:55.733Z,0
2017-08-15T00:23:56.079Z,0
2017-08-15T00:24:56.094Z,0
2017-08-15T00:25:56.130Z,0
2017-08-15T00:26:56.149Z,0
2017-08-15T00:27:56.179Z,0
2017-08-15T00:28:55.889Z,0
2017-08-15T00:30:10.842Z,0
2017-08-15T00:31:56.280Z,0
2017-08-15T00:32:55.990Z,0
2017-08-15T00:33:56.011Z,0
2017-08-15T00:34:55.717Z,0
2017-08-15T00:35:55.744Z,0
2017-08-15T00:36:56.076Z,0
2017-08-15T00:38:11.017Z,0
2017-08-15T00:38:56.435Z,0
2017-08-15T00:39:56.148Z,0
2017-08-15T00:40:56.169Z,0
2017-08-15T00:41:56.487Z,0
2017-08-15T00:42:56.535Z,0
2017-08-15T00:43:56.238Z,0
2017-08-15T00:45:11.179Z,0
2017-08-15T00:45:56.603Z,0
2017-08-15T00:46:56.598Z,0
2017-08-15T00:48:11.256Z,0
2017-08-15T00:48:56.359Z,0
2017-08-15T00:50:11.289Z,0
2017-08-15T00:50:56.398Z,0
2017-08-15T00:51:56.445Z,0
2017-08-15T00:52:56.456Z,0
2017-08-15T00:54:11.391Z,0
2017-08-15T00:55:11.419Z,0
2017-08-15T00:55:56.539Z,0
2017-08-15T00:56:56.858Z,0
2017-08-15T00:57:56.896Z,0
2017-08-15T00:58:56.591Z,0
2017-08-15T00:59:56.315Z,0
2017-08-15T01:01:11.560Z,0
2017-08-15T01:01:56.992Z,0
2017-08-15T01:02:56.700Z,0
2017-08-15T01:03:56.713Z,0
2017-08-15T01:04:57.064Z,0
2017-08-15T01:05:57.045Z,0
2017-08-15T01:06:57.095Z,0
2017-08-15T01:07:56.800Z,0
2017-08-15T01:09:57.173Z,0
2017-08-15T01:10:56.876Z,0
2017-08-15T01:11:57.227Z,0
2017-08-15T01:12:56.934Z,0
2017-08-15T01:14:11.865Z,0
2017-08-15T01:14:57.273Z,0
2017-08-15T01:15:57.318Z,0
2017-08-15T01:17:11.927Z,0
2017-08-15T01:17:57.355Z,0
2017-08-15T01:18:57.098Z,0
2017-08-15T01:19:57.084Z,0
2017-08-15T01:20:57.444Z,0
2017-08-15T01:21:57.424Z,0
2017-08-15T01:22:57.221Z,0
2017-08-15T01:23:56.878Z,0
2017-08-15T01:24:57.521Z,0
2017-08-15T01:26:12.148Z,0
2017-08-15T01:27:12.166Z,0
2017-08-15T01:27:57.286Z,0
2017-08-15T01:28:57.314Z,0
2017-08-15T01:29:57.325Z,0
2017-08-15T01:30:57.684Z,0
2017-08-15T01:31:57.669Z,0
2017-08-15T01:33:12.315Z,0
2017-08-15T01:33:57.728Z,0
2017-08-15T01:34:57.758Z,0
2017-08-15T01:35:57.478Z,0
2017-08-15T01:36:57.801Z,0
2017-08-15T01:37:57.833Z,0
2017-08-15T01:38:57.877Z,0
2017-08-15T01:39:57.878Z,0
2017-08-15T01:40:57.588Z,0
2017-08-15T01:41:57.930Z,0
2017-08-15T01:43:57.945Z,0
2017-08-15T01:44:57.991Z,0
2017-08-15T01:45:58.016Z,0
2017-08-15T01:46:57.434Z,0
2017-08-15T01:48:12.644Z,0
2017-08-15T01:49:12.688Z,0
2017-08-15T01:49:57.179Z,0
2017-08-15T01:52:57.876Z,0
2017-08-15T01:53:58.186Z,0
2017-08-15T01:54:57.934Z,0
2017-08-15T01:55:57.925Z,0
2017-08-15T01:57:12.884Z,0
2017-08-15T01:58:57.752Z,0
2017-08-15T01:59:58.344Z,0
2017-08-15T02:00:58.351Z,0
2017-08-15T02:02:12.692Z,0
2017-08-15T02:03:13.026Z,0
2017-08-15T02:03:58.453Z,0
2017-08-15T02:05:13.061Z,0
2017-08-15T02:05:58.172Z,0
2017-08-15T02:06:58.504Z,0
2017-08-15T02:08:13.118Z,0
2017-08-15T02:08:58.253Z,0
2017-08-15T02:09:58.562Z,0
2017-08-15T02:10:58.613Z,0
2017-08-15T02:11:58.304Z,0
2017-08-15T02:13:12.945Z,0
2017-08-15T02:13:58.357Z,0
2017-08-15T02:14:58.696Z,0
2017-08-15T02:16:58.725Z,0
2017-08-15T02:17:58.780Z,0
2017-08-15T02:18:58.494Z,0
2017-08-15T02:20:13.413Z,0
2017-08-15T02:20:58.832Z,0
2017-08-15T02:21:58.869Z,0
2017-08-15T02:22:58.256Z,0
2017-08-15T02:23:58.928Z,0
2017-08-15T02:24:58.924Z,0
2017-08-15T02:25:58.976Z,0
2017-08-15T02:26:58.964Z,0
2017-08-15T02:27:59.008Z,0
2017-08-15T02:28:59.025Z,0
2017-08-15T02:29:58.749Z,0
2017-08-15T02:30:58.749Z,0
2017-08-15T02:31:58.780Z,0
2017-08-15T02:32:58.801Z,0
2017-08-15T02:33:58.526Z,0
2017-08-15T02:34:58.863Z,0
2017-08-15T02:36:13.773Z,0
2017-08-15T02:36:59.226Z,0
2017-08-15T02:37:58.913Z,0
2017-08-15T02:38:59.281Z,0
2017-08-15T02:39:59.275Z,0
2017-08-15T02:41:59.021Z,0
2017-08-15T02:43:13.641Z,0
2017-08-15T02:43:59.072Z,0
2017-08-15T02:45:59.418Z,0
2017-08-15T02:46:58.830Z,0
2017-08-15T02:48:58.875Z,0
2017-08-15T02:49:59.198Z,0
2017-08-15T02:51:14.138Z,0
2017-08-15T02:52:13.859Z,0
2017-08-15T02:52:59.577Z,0
2017-08-15T02:53:58.692Z,0
2017-08-15T02:54:59.002Z,0
2017-08-15T02:55:59.671Z,0
2017-08-15T02:56:59.046Z,0
2017-08-15T02:57:59.704Z,0
2017-08-15T02:58:59.743Z,0
2017-08-15T02:59:59.744Z,0
2017-08-15T03:00:58.879Z,0
2017-08-15T03:02:14.077Z,0
2017-08-15T03:02:58.897Z,0
2017-08-15T03:03:59.523Z,0
2017-08-15T03:04:59.903Z,0
2017-08-15T03:05:59.582Z,0
2017-08-15T03:06:59.912Z,4
2017-08-15T03:08:14.208Z,4
2017-08-15T03:08:59.642Z,0
2017-08-15T03:09:59.675Z,0
2017-08-15T03:10:59.693Z,4
2017-08-15T03:11:59.707Z,4
2017-08-15T03:12:59.747Z,4
2017-08-15T03:13:59.458Z,4
2017-08-15T03:14:59.802Z,4
2017-08-15T03:16:00.105Z,8
2017-08-15T03:16:59.828Z,8
2017-08-15T03:18:00.155Z,8
2017-08-15T03:19:00.190Z,12
2017-08-15T03:20:14.186Z,8
2017-08-15T03:20:59.620Z,12
2017-08-15T03:22:14.549Z,12
2017-08-15T03:23:14.882Z,20
2017-08-15T03:24:00.315Z,20
2017-08-15T03:24:59.999Z,24
2017-08-15T03:26:00.039Z,24
2017-08-15T03:27:14.349Z,32
2017-08-15T03:28:00.394Z,36
2017-08-15T03:29:00.413Z,40
2017-08-15T03:30:00.137Z,48
2017-08-15T03:31:00.504Z,56
2017-08-15T03:32:00.192Z,60
2017-08-15T03:34:00.210Z,80
2017-08-15T03:35:00.557Z,88
2017-08-15T03:36:00.263Z,100
2017-08-15T03:37:00.305Z,112
2017-08-15T03:38:00.323Z,124
2017-08-15T03:39:00.346Z,136
2017-08-15T03:40:00.698Z,148
2017-08-15T03:41:00.378Z,164
2017-08-15T03:43:00.745Z,200
2017-08-15T03:44:00.463Z,220
2017-08-15T03:45:15.061Z,244
2017-08-15T03:46:00.800Z,260
2017-08-15T03:47:00.541Z,284
2017-08-15T03:48:00.551Z,312
2017-08-15T03:50:00.914Z,364
2017-08-15T03:51:00.629Z,392
2017-08-15T03:52:00.643Z,424
2017-08-15T03:53:15.590Z,464
2017-08-15T03:54:00.376Z,492
2017-08-15T03:55:15.619Z,536
2017-08-15T03:56:01.051Z,568
2017-08-15T03:57:01.080Z,608
2017-08-15T03:58:01.098Z,648
2017-08-15T03:59:00.489Z,700
2017-08-15T04:00:01.130Z,744
2017-08-15T04:01:01.157Z,792
2017-08-15T04:02:01.186Z,844
2017-08-15T04:03:00.892Z,900
2017-08-15T04:04:01.226Z,956
2017-08-15T04:05:01.268Z,1012
2017-08-15T04:06:01.261Z,1072
2017-08-15T04:07:15.591Z,1144
2017-08-15T04:08:01.316Z,1192
2017-08-15T04:09:01.028Z,1252
2017-08-15T04:10:01.060Z,1312
2017-08-15T04:11:16.048Z,1388
2017-08-15T04:12:16.012Z,1448
2017-08-15T04:13:01.455Z,1492
2017-08-15T04:14:01.458Z,1544
2017-08-15T04:15:01.488Z,1600
2017-08-15T04:16:01.199Z,1652
2017-08-15T04:17:01.579Z,1704
2017-08-15T04:18:16.156Z,1776
2017-08-15T04:19:01.570Z,1828
2017-08-15T04:20:01.596Z,1884
2017-08-15T04:21:01.618Z,1932
2017-08-15T04:22:01.647Z,1992
2017-08-15T04:23:16.255Z,2048
2017-08-15T04:24:16.280Z,2136
2017-08-15T04:25:01.710Z,2236
2017-08-15T04:26:01.750Z,2376
2017-08-15T04:27:16.411Z,2516
2017-08-15T04:28:16.367Z,2596
2017-08-15T04:29:01.810Z,2628
2017-08-15T04:31:16.121Z,2852
2017-08-15T04:32:01.889Z,2904
2017-08-15T04:33:01.903Z,3028
2017-08-15T04:34:01.910Z,3276
2017-08-15T04:35:01.946Z,3148
2017-08-15T04:36:01.955Z,3116
2017-08-15T04:37:02.016Z,3204
2017-08-15T04:38:01.998Z,3412
2017-08-15T04:39:02.058Z,3568
2017-08-15T04:40:02.061Z,3644
2017-08-15T04:41:01.766Z,3744
2017-08-15T04:42:02.093Z,3856
2017-08-15T04:43:16.743Z,4344
2017-08-15T04:44:02.173Z,4792
2017-08-15T04:45:02.177Z,5308
2017-08-15T04:46:02.205Z,6432
2017-08-15T04:47:02.211Z,6236
2017-08-15T04:48:02.253Z,5740
2017-08-15T04:49:02.250Z,5612
2017-08-15T04:50:01.993Z,5128
2017-08-15T04:51:02.310Z,5248
2017-08-15T04:52:02.043Z,7272
2017-08-15T04:54:02.382Z,13248
2017-08-15T04:55:02.423Z,24192
2017-08-15T04:56:02.426Z,39072
2017-08-15T04:57:02.175Z,42560
2017-08-15T04:58:16.762Z,43712
2017-08-15T04:59:02.215Z,44608
2017-08-15T05:00:16.817Z,44128
2017-08-15T05:01:17.172Z,43680
2017-08-15T05:02:02.580Z,44864
2017-08-15T05:03:02.607Z,46432
2017-08-15T05:04:02.029Z,45856
2017-08-15T05:05:02.663Z,44544
2017-08-15T05:06:02.679Z,45248
2017-08-15T05:07:02.711Z,47616
2017-08-15T05:08:02.728Z,48032
2017-08-15T05:10:02.780Z,49312
2017-08-15T05:11:02.492Z,49568
2017-08-15T05:12:02.856Z,48320
2017-08-15T05:13:02.883Z,48896
2017-08-15T05:14:02.575Z,49600
2017-08-15T05:15:17.533Z,50560
2017-08-15T05:16:02.936Z,52768
2017-08-15T05:17:03.000Z,53024
2017-08-15T05:18:02.999Z,53984
2017-08-15T05:19:17.652Z,52032
2017-08-15T05:20:03.055Z,51424
2017-08-15T05:21:03.086Z,52288
2017-08-15T05:22:03.136Z,53824
2017-08-15T05:24:03.200Z,53600
2017-08-15T05:25:03.208Z,54656
2017-08-15T05:26:02.949Z,55680
2017-08-15T05:27:17.880Z,56064
2017-08-15T05:28:17.902Z,57184
2017-08-15T05:29:03.022Z,56448
2017-08-15T05:30:17.662Z,53280
2017-08-15T05:31:03.080Z,52960
2017-08-15T05:32:03.450Z,55008
2017-08-15T05:33:18.053Z,58432
2017-08-15T05:34:03.503Z,58368
2017-08-15T05:35:03.218Z,58784
2017-08-15T05:36:03.557Z,60960
2017-08-15T05:37:03.589Z,60064
2017-08-15T05:39:03.677Z,59424
2017-08-15T05:40:03.382Z,60160
2017-08-15T05:41:03.729Z,61088
2017-08-15T05:42:03.738Z,60544
2017-08-15T05:43:03.793Z,60160
2017-08-15T05:44:03.812Z,60064
2017-08-15T05:45:03.848Z,61408
2017-08-15T05:47:03.908Z,60512
2017-08-15T05:48:03.952Z,61280
2017-08-15T05:49:04.026Z,62080
2017-08-15T05:50:04.036Z,63488
2017-08-15T05:51:04.041Z,64064
2017-08-15T05:52:04.075Z,64704
2017-08-15T05:53:04.093Z,65408
2017-08-15T05:54:18.754Z,67488
2017-08-15T05:55:18.785Z,67552
2017-08-15T05:56:04.240Z,69056
2017-08-15T05:57:18.850Z,68576
2017-08-15T05:58:04.286Z,67488
2017-08-15T05:59:04.331Z,67904
2017-08-15T06:00:04.355Z,68352
2017-08-15T06:01:04.357Z,72128
2017-08-15T06:02:19.019Z,71968
2017-08-15T06:03:04.469Z,70656
2017-08-15T06:04:04.487Z,71168
2017-08-15T06:05:04.539Z,73440
2017-08-15T06:06:04.526Z,75232
2017-08-15T06:07:04.611Z,74656
2017-08-15T06:08:04.295Z,73664
2017-08-15T06:09:04.653Z,71456
2017-08-15T06:10:04.678Z,73984
2017-08-15T06:11:04.732Z,77152
2017-08-15T06:12:04.745Z,76544
2017-08-15T06:13:19.383Z,75744
2017-08-15T06:14:04.831Z,77376
2017-08-15T06:15:04.535Z,78432
2017-08-15T06:16:04.586Z,78464
2017-08-15T06:17:04.621Z,78208
2017-08-15T06:18:34.167Z,74112
2017-08-15T06:19:19.598Z,71936
2017-08-15T06:20:04.710Z,69472
2017-08-15T06:21:05.066Z,67200
2017-08-15T06:22:05.115Z,68000
2017-08-15T06:23:19.428Z,72960
2017-08-15T06:24:05.175Z,75296
2017-08-15T06:25:05.195Z,80064
2017-08-15T06:26:05.233Z,81408
2017-08-15T06:27:05.269Z,77472
2017-08-15T06:28:05.330Z,75872
2017-08-15T06:29:05.351Z,79200
2017-08-15T06:30:05.068Z,79456
2017-08-15T06:31:05.411Z,77248
2017-08-15T06:32:05.453Z,78272
2017-08-15T06:33:19.788Z,78592
2017-08-15T06:34:05.516Z,77216
2017-08-15T06:35:05.558Z,76576
2017-08-15T06:36:20.190Z,78176
2017-08-15T06:37:05.337Z,78976
2017-08-15T06:38:05.668Z,80160
2017-08-15T06:39:20.304Z,77344
2017-08-15T06:40:05.748Z,73632
2017-08-15T06:41:05.460Z,74048
2017-08-15T06:42:05.498Z,76352
2017-08-15T06:43:20.444Z,75456
2017-08-15T06:44:05.853Z,76544
2017-08-15T06:45:20.517Z,80064
2017-08-15T06:46:05.939Z,77760
2017-08-15T06:47:05.960Z,75264
2017-08-15T06:48:20.328Z,73664
2017-08-15T06:49:06.055Z,74080
2017-08-15T06:50:06.093Z,73408
2017-08-15T06:51:06.135Z,74720
2017-08-15T06:52:06.154Z,74432
2017-08-15T06:53:20.806Z,72992
2017-08-15T06:55:06.276Z,73696
2017-08-15T06:56:05.996Z,73856
2017-08-15T06:57:06.315Z,74656
2017-08-15T06:58:06.403Z,75328
2017-08-15T06:59:06.413Z,75616
2017-08-15T07:00:06.460Z,75392
2017-08-15T07:01:06.486Z,74048
2017-08-15T07:03:06.553Z,73760
2017-08-15T07:04:06.603Z,74464
2017-08-15T07:05:21.223Z,71680
2017-08-15T07:06:06.672Z,70144
2017-08-15T07:07:06.686Z,70144
2017-08-15T07:08:06.420Z,72992
2017-08-15T07:09:06.454Z,73664
2017-08-15T07:10:06.841Z,74752
2017-08-15T07:11:06.885Z,73760
2017-08-15T07:12:06.570Z,72032
2017-08-15T07:13:06.941Z,73376
2017-08-15T07:14:06.953Z,72512
2017-08-15T07:15:21.605Z,69568
2017-08-15T07:16:07.022Z,68960
2017-08-15T07:17:21.352Z,69408
2017-08-15T07:18:06.819Z,69888
2017-08-15T07:19:06.833Z,65792
2017-08-15T07:20:07.176Z,65856
2017-08-15T07:21:21.815Z,68608
2017-08-15T07:22:07.245Z,67520
2017-08-15T07:23:21.578Z,70368
2017-08-15T07:24:07.300Z,68960
2017-08-15T07:25:21.661Z,65824
2017-08-15T07:26:07.401Z,67104
2017-08-15T07:27:07.437Z,67008
2017-08-15T07:28:07.469Z,63616
2017-08-15T07:29:07.494Z,66208
2017-08-15T07:30:07.544Z,68512
2017-08-15T07:31:07.577Z,63936
2017-08-15T07:32:07.615Z,66400
2017-08-15T07:33:07.629Z,67424
2017-08-15T07:34:21.980Z,64224
2017-08-15T07:35:07.736Z,66656
2017-08-15T07:36:07.760Z,66208
2017-08-15T07:37:37.001Z,65440
2017-08-15T07:38:07.523Z,65056
2017-08-15T07:39:07.870Z,65152
2017-08-15T07:40:07.902Z,60960
2017-08-15T07:41:07.950Z,57248
2017-08-15T07:42:07.975Z,60288
2017-08-15T07:43:22.316Z,61856
2017-08-15T07:44:07.725Z,63424
2017-08-15T07:45:07.795Z,63552
2017-08-15T07:46:08.109Z,63872
2017-08-15T07:47:08.163Z,62848
2017-08-15T07:48:08.183Z,61536
2017-08-15T07:50:08.247Z,60672
2017-08-15T07:51:08.314Z,63168
2017-08-15T07:52:08.342Z,62784
2017-08-15T07:53:22.977Z,59744
2017-08-15T07:54:08.407Z,58560
2017-08-15T07:56:08.194Z,64000
2017-08-15T07:57:08.524Z,62304
2017-08-15T07:58:08.569Z,62240
2017-08-15T07:59:08.605Z,60608
2017-08-15T08:00:08.637Z,58976
2017-08-15T08:01:08.667Z,61792
2017-08-15T08:02:23.299Z,63680
2017-08-15T08:03:23.345Z,58176
2017-08-15T08:05:08.818Z,61376
2017-08-15T08:06:08.543Z,57344
2017-08-15T08:07:08.584Z,58464
2017-08-15T08:08:23.527Z,60096
2017-08-15T08:09:08.645Z,59552
2017-08-15T08:10:09.000Z,59808
2017-08-15T08:11:09.032Z,59104
2017-08-15T08:12:08.440Z,58464
2017-08-15T08:13:09.107Z,56800
2017-08-15T08:14:09.146Z,57376
2017-08-15T08:15:09.180Z,58112
2017-08-15T08:16:08.887Z,54816
2017-08-15T08:17:08.944Z,55424
2017-08-15T08:18:08.961Z,56736
2017-08-15T08:19:08.707Z,55840
2017-08-15T08:22:09.443Z,52384
2017-08-15T08:23:09.431Z,54080
2017-08-15T08:24:09.500Z,51584
2017-08-15T08:25:08.890Z,50816
2017-08-15T08:26:09.568Z,51936
2017-08-15T08:27:09.283Z,48512
2017-08-15T08:28:09.676Z,41024
2017-08-15T08:29:09.674Z,28544
2017-08-15T08:30:09.393Z,21984
2017-08-15T08:31:09.729Z,21056
2017-08-15T08:32:09.463Z,20736
2017-08-15T08:33:24.420Z,20384
2017-08-15T08:34:09.847Z,20320
2017-08-15T08:35:09.888Z,20128
2017-08-15T08:36:09.916Z,20032
2017-08-15T08:37:09.656Z,20032
2017-08-15T08:38:24.581Z,19872
2017-08-15T08:39:10.027Z,19808
2017-08-15T08:40:24.648Z,19520
2017-08-15T08:41:09.794Z,19616
2017-08-15T08:42:10.098Z,19552
2017-08-15T08:43:10.157Z,19456
2017-08-15T08:44:24.803Z,19424
2017-08-15T08:45:09.942Z,19360
2017-08-15T08:46:10.278Z,19392
2017-08-15T08:47:10.285Z,19232
2017-08-15T08:48:10.350Z,19168
2017-08-15T08:49:09.732Z,19232
2017-08-15T08:50:10.085Z,19136
2017-08-15T08:51:10.151Z,19072
2017-08-15T08:52:10.477Z,19072
2017-08-15T08:53:10.196Z,19104
2017-08-15T08:54:10.525Z,19040
2017-08-15T08:55:09.958Z,19008
2017-08-15T08:56:24.902Z,19040
2017-08-15T08:57:10.666Z,19008
2017-08-15T08:58:10.666Z,18880
2017-08-15T08:59:10.412Z,18752
2017-08-15T09:00:10.120Z,18848
2017-08-15T09:01:10.491Z,18816
2017-08-15T09:02:10.513Z,18784
2017-08-15T09:03:25.459Z,18368
2017-08-15T09:04:10.893Z,18560
2017-08-15T09:06:10.958Z,18528
2017-08-15T09:07:10.687Z,18368
2017-08-15T09:09:11.068Z,17920
2017-08-15T09:10:10.797Z,17856
2017-08-15T09:12:25.774Z,17164
2017-08-15T09:13:11.196Z,16952
2017-08-15T09:14:10.934Z,16904
2017-08-15T09:15:11.264Z,17144
2017-08-15T09:16:10.996Z,17216
2017-08-15T09:17:11.342Z,17400
2017-08-15T09:18:25.685Z,17368
2017-08-15T09:19:11.392Z,17360
2017-08-15T09:20:11.118Z,17288
2017-08-15T09:21:11.484Z,17108
2017-08-15T09:22:11.490Z,17012
2017-08-15T09:23:11.548Z,16916
2017-08-15T09:24:11.574Z,16896
2017-08-15T09:26:11.316Z,16664
2017-08-15T09:27:11.680Z,16612
2017-08-15T09:28:26.015Z,16544
2017-08-15T09:29:11.432Z,15956
2017-08-15T09:30:11.778Z,15032
2017-08-15T09:31:11.487Z,15708
2017-08-15T09:32:11.852Z,16004
2017-08-15T09:33:26.474Z,16112
2017-08-15T09:34:11.895Z,16244
2017-08-15T09:35:26.557Z,16200
2017-08-15T09:36:11.676Z,16172
2017-08-15T09:37:12.013Z,15768
2017-08-15T09:38:12.040Z,15628
2017-08-15T09:39:12.093Z,15756
2017-08-15T09:40:12.124Z,15868
2017-08-15T09:41:11.824Z,15808
2017-08-15T09:42:12.183Z,15588
2017-08-15T09:43:26.851Z,14864
2017-08-15T09:44:12.254Z,14540
2017-08-15T09:45:11.965Z,13900
2017-08-15T09:46:12.005Z,14380
2017-08-15T09:47:12.358Z,14284
2017-08-15T09:48:12.386Z,14464
2017-08-15T09:49:12.094Z,14648
2017-08-15T09:50:12.129Z,14676
2017-08-15T09:51:12.182Z,14760
2017-08-15T09:52:12.506Z,14964
2017-08-15T09:53:12.567Z,14984
2017-08-15T09:54:12.597Z,15308
2017-08-15T09:55:12.007Z,15404
2017-08-15T09:56:12.317Z,15444
2017-08-15T09:57:26.962Z,15396
2017-08-15T09:58:12.080Z,15448
2017-08-15T09:59:27.034Z,15064
2017-08-15T10:00:12.466Z,15596
2017-08-15T10:01:12.817Z,15440
2017-08-15T10:02:12.234Z,15676
2017-08-15T10:03:12.570Z,15708
2017-08-15T10:05:27.225Z,15552
2017-08-15T10:06:12.674Z,15340
2017-08-15T10:07:12.990Z,15272
2017-08-15T10:08:13.052Z,14920
2017-08-15T10:09:12.459Z,14140
2017-08-15T10:10:13.125Z,13808
2017-08-15T10:11:13.133Z,14416
2017-08-15T10:12:12.872Z,14760
2017-08-15T10:13:12.884Z,14776
2017-08-15T10:14:13.230Z,14432
2017-08-15T10:15:27.857Z,14120
2017-08-15T10:16:13.306Z,13784
2017-08-15T10:17:27.936Z,12984
2017-08-15T10:18:13.363Z,12860
2017-08-15T10:19:13.403Z,13408
2017-08-15T10:20:13.117Z,13900
2017-08-15T10:21:28.075Z,13904
2017-08-15T10:22:12.870Z,13524
2017-08-15T10:23:12.926Z,13240
2017-08-15T10:24:13.571Z,12952
2017-08-15T10:25:12.974Z,11932
2017-08-15T10:26:13.312Z,11600
2017-08-15T10:27:13.676Z,12120
2017-08-15T10:28:28.277Z,12524
2017-08-15T10:29:13.411Z,13004
2017-08-15T10:30:13.769Z,13556
2017-08-15T10:31:28.387Z,14268
2017-08-15T10:32:13.514Z,13860
2017-08-15T10:33:13.862Z,14420
2017-08-15T10:34:12.955Z,14912
2017-08-15T10:35:13.933Z,14580
2017-08-15T10:36:13.332Z,14544
2017-08-15T10:37:13.959Z,14600
2017-08-15T10:38:14.027Z,14488
2017-08-15T10:39:14.042Z,11744
2017-08-15T10:40:14.075Z,13484
2017-08-15T10:41:13.800Z,13252
2017-08-15T10:42:13.830Z,13844
2017-08-15T10:43:14.178Z,13940
2017-08-15T10:44:13.909Z,13912
2017-08-15T10:45:13.939Z,13772
2017-08-15T10:46:13.956Z,13860
2017-08-15T10:47:43.506Z,13604
2017-08-15T10:48:14.356Z,13528
2017-08-15T10:49:13.740Z,13404
2017-08-15T10:50:14.414Z,13344
2017-08-15T10:51:14.121Z,13280
2017-08-15T10:53:28.782Z,12584
2017-08-15T10:54:14.234Z,12752
2017-08-15T10:55:14.539Z,12528
2017-08-15T10:56:14.276Z,12496
2017-08-15T10:57:13.982Z,12556
2017-08-15T10:58:14.647Z,12320
2017-08-15T10:59:14.683Z,12288
2017-08-15T11:00:14.735Z,11668
2017-08-15T11:01:14.744Z,12376
2017-08-15T11:02:14.159Z,12548
2017-08-15T11:03:29.080Z,12876
2017-08-15T11:04:14.211Z,11464
2017-08-15T11:05:14.561Z,8488
2017-08-15T11:06:14.581Z,8196
2017-08-15T11:07:14.932Z,8424
2017-08-15T11:08:14.343Z,8528
2017-08-15T11:09:14.981Z,9280
2017-08-15T11:10:15.024Z,10092
2017-08-15T11:11:14.737Z,10768
2017-08-15T11:12:14.780Z,10620
2017-08-15T11:13:15.121Z,10728
2017-08-15T11:14:15.203Z,10912
2017-08-15T11:15:15.168Z,11296
2017-08-15T11:16:14.902Z,11408
2017-08-15T11:17:14.619Z,14348
2017-08-15T11:18:44.471Z,13852
2017-08-15T11:19:14.983Z,13300
2017-08-15T11:20:29.630Z,12396
2017-08-15T11:21:15.046Z,11664
2017-08-15T11:23:29.698Z,9640
2017-08-15T11:24:14.846Z,9100
2017-08-15T11:25:15.186Z,8524
2017-08-15T11:26:14.892Z,8028
2017-08-15T11:27:14.919Z,7604
2017-08-15T11:28:14.954Z,7268
2017-08-15T11:29:15.285Z,7000
2017-08-15T11:30:15.025Z,6784
2017-08-15T11:31:15.363Z,6616
2017-08-15T11:32:15.689Z,6480
2017-08-15T11:33:15.731Z,6372
2017-08-15T11:34:15.430Z,6292
2017-08-15T11:35:30.422Z,6188
2017-08-15T11:36:15.509Z,6108
2017-08-15T11:37:15.548Z,6044
2017-08-15T11:38:15.884Z,5984
2017-08-15T11:39:15.290Z,5948
2017-08-15T11:40:15.322Z,5920
2017-08-15T11:41:15.649Z,5896
2017-08-15T11:42:15.689Z,5860
2017-08-15T11:43:16.027Z,5852
2017-08-15T11:44:16.066Z,5852
2017-08-15T11:45:15.788Z,5856
2017-08-15T11:46:15.813Z,5852
2017-08-15T11:47:15.854Z,5848
2017-08-15T11:48:16.179Z,5876
2017-08-15T11:49:16.219Z,5924
2017-08-15T11:50:30.836Z,5960
2017-08-15T11:51:16.257Z,5920
2017-08-15T11:52:15.986Z,5820
2017-08-15T11:53:16.343Z,6104
2017-08-15T11:54:30.956Z,5488
2017-08-15T11:55:16.089Z,5068
2017-08-15T11:56:16.423Z,6564
2017-08-15T11:57:16.427Z,6904
2017-08-15T11:58:16.471Z,6168
2017-08-15T11:59:31.104Z,6992
2017-08-15T12:00:15.918Z,6576
2017-08-15T12:01:16.269Z,6880
2017-08-15T12:02:16.281Z,7740
2017-08-15T12:03:16.628Z,7940
2017-08-15T12:04:16.654Z,7936
2017-08-15T12:05:16.383Z,7908
2017-08-15T12:06:45.910Z,7664
2017-08-15T12:07:16.432Z,7884
2017-08-15T12:08:16.464Z,8588
2017-08-15T12:09:16.812Z,9604
2017-08-15T12:10:16.839Z,9828
2017-08-15T12:12:16.582Z,11288
2017-08-15T12:13:16.597Z,10768
2017-08-15T12:14:31.239Z,9624
2017-08-15T12:15:31.585Z,9148
2017-08-15T12:16:31.608Z,8872
2017-08-15T12:17:17.024Z,8728
2017-08-15T12:18:17.094Z,8204
2017-08-15T12:19:17.095Z,8612
2017-08-15T12:20:17.142Z,8720
2017-08-15T12:21:16.834Z,8116
2017-08-15T12:22:46.392Z,7372
2017-08-15T12:23:17.275Z,7184
2017-08-15T12:24:16.945Z,6904
2017-08-15T12:25:17.296Z,6668
2017-08-15T12:26:17.293Z,6448
2017-08-15T12:27:17.338Z,6232
2017-08-15T12:28:31.968Z,6052
2017-08-15T12:29:17.085Z,5956
2017-08-15T12:31:17.451Z,5784
2017-08-15T12:32:17.187Z,5776
2017-08-15T12:33:17.203Z,5748
2017-08-15T12:34:17.557Z,5720
2017-08-15T12:35:17.273Z,5288
2017-08-15T12:36:17.585Z,5632
2017-08-15T12:37:17.652Z,5732
2017-08-15T12:38:32.248Z,5600
2017-08-15T12:39:17.396Z,4000
2017-08-15T12:41:17.449Z,3816
2017-08-15T12:42:17.782Z,5520
2017-08-15T12:43:17.517Z,5636
2017-08-15T12:44:17.847Z,5848
2017-08-15T12:45:17.887Z,5424
2017-08-15T12:46:17.274Z,5864
2017-08-15T12:47:32.542Z,5236
2017-08-15T12:49:18.039Z,5828
2017-08-15T12:50:18.036Z,5836
2017-08-15T12:51:18.056Z,5788
2017-08-15T12:52:17.789Z,5728
2017-08-15T12:53:32.709Z,5716
2017-08-15T12:54:18.148Z,5724
2017-08-15T12:55:18.163Z,5688
2017-08-15T12:57:17.929Z,5716
2017-08-15T12:58:17.951Z,5704
2017-08-15T12:59:17.989Z,5700
2017-08-15T13:00:17.996Z,5688
2017-08-15T13:01:18.342Z,5700
2017-08-15T13:02:32.969Z,5688
2017-08-15T13:03:18.421Z,5688
2017-08-15T13:04:18.432Z,5668
2017-08-15T13:05:18.475Z,5656
2017-08-15T13:06:18.510Z,5652
2017-08-15T13:07:18.516Z,5644
2017-08-15T13:08:18.564Z,5656
2017-08-15T13:09:18.587Z,5632
2017-08-15T13:10:18.619Z,5652
2017-08-15T13:11:18.638Z,5660
2017-08-15T13:12:18.093Z,5640
2017-08-15T13:14:18.402Z,5656
2017-08-15T13:15:18.779Z,5644
2017-08-15T13:16:18.832Z,5648
2017-08-15T13:17:18.492Z,5648
2017-08-15T13:18:18.231Z,5672
2017-08-15T13:19:32.845Z,5660
2017-08-15T13:20:18.909Z,5672
2017-08-15T13:21:18.620Z,5684
2017-08-15T13:22:18.974Z,5684
2017-08-15T13:23:18.674Z,5668
2017-08-15T13:24:19.050Z,5668
2017-08-15T13:25:33.634Z,5644
2017-08-15T13:26:18.774Z,5636
2017-08-15T13:27:19.117Z,5644
2017-08-15T13:28:18.513Z,5688
2017-08-15T13:29:18.872Z,5672
2017-08-15T13:30:18.884Z,5672
2017-08-15T13:31:19.240Z,5644
2017-08-15T13:32:33.551Z,5656
2017-08-15T13:33:19.302Z,5660
2017-08-15T13:34:19.324Z,5696
2017-08-15T13:35:19.374Z,5708
2017-08-15T13:36:19.381Z,5704
2017-08-15T13:37:34.012Z,5712
2017-08-15T13:38:19.448Z,5736
2017-08-15T13:39:19.494Z,5760
2017-08-15T13:40:19.480Z,5788
2017-08-15T13:41:34.134Z,5760
2017-08-15T13:42:19.548Z,5748
2017-08-15T13:43:19.580Z,5728
2017-08-15T13:45:19.646Z,5796
2017-08-15T13:46:19.670Z,5820
2017-08-15T13:47:19.674Z,5784
2017-08-15T13:48:19.724Z,5656
2017-08-15T13:49:19.739Z,5588
2017-08-15T13:50:19.799Z,5628
2017-08-15T13:51:19.821Z,5692
2017-08-15T13:52:19.862Z,5728
2017-08-15T13:53:19.558Z,5764
2017-08-15T13:54:19.600Z,5748
2017-08-15T13:55:19.927Z,5788
2017-08-15T13:56:19.969Z,5752
2017-08-15T13:57:34.270Z,5728
2017-08-15T13:58:20.040Z,5744
2017-08-15T13:59:19.753Z,5712
2017-08-15T14:00:20.072Z,5468
2017-08-15T14:01:20.114Z,5440
2017-08-15T14:02:20.150Z,5576
2017-08-15T14:03:19.854Z,5720
2017-08-15T14:04:20.206Z,5772
2017-08-15T14:05:19.908Z,5952
2017-08-15T14:06:20.257Z,6060
2017-08-15T14:07:20.275Z,6048
2017-08-15T14:08:20.009Z,3928